sensor_id;sensor_type;location;lat;lon;timestamp;temperature;humidity
69895;DHT22;57172;52.034;5.090;2023-05-07T00:01:22;16.20;80.30
69895;DHT22;57172;52.034;5.090;2023-05-07T00:03:49;16.20;80.30
69895;DHT22;57172;52.034;5.090;2023-05-07T00:06:16;16.30;80.20
69895;DHT22;57172;52.034;5.090;2023-05-07T00:08:43;16.30;80.10
69895;DHT22;57172;52.034;5.090;2023-05-07T00:11:11;16.20;80.20
69895;DHT22;57172;52.034;5.090;2023-05-07T00:13:38;16.20;80.10
69895;DHT22;57172;52.034;5.090;2023-05-07T00:16:04;16.20;80.10
69895;DHT22;57172;52.034;5.090;2023-05-07T00:18:32;16.20;80.10
69895;DHT22;57172;52.034;5.090;2023-05-07T00:20:58;16.20;80.20
69895;DHT22;57172;52.034;5.090;2023-05-07T00:23:25;16.20;80.20
69895;DHT22;57172;52.034;5.090;2023-05-07T00:25:52;16.20;80.20
69895;DHT22;57172;52.034;5.090;2023-05-07T00:28:19;16.20;80.10
69895;DHT22;57172;52.034;5.090;2023-05-07T00:30:45;16.20;80.20
69895;DHT22;57172;52.034;5.090;2023-05-07T00:33:12;16.20;80.20
69895;DHT22;57172;52.034;5.090;2023-05-07T00:35:39;16.20;80.30
69895;DHT22;57172;52.034;5.090;2023-05-07T00:38:06;16.20;80.30
69895;DHT22;57172;52.034;5.090;2023-05-07T00:40:33;16.20;80.30
69895;DHT22;57172;52.034;5.090;2023-05-07T00:43:00;16.20;80.30
69895;DHT22;57172;52.034;5.090;2023-05-07T00:45:27;16.20;80.40
69895;DHT22;57172;52.034;5.090;2023-05-07T00:47:57;16.20;80.40
69895;DHT22;57172;52.034;5.090;2023-05-07T00:50:28;16.20;80.20
69895;DHT22;57172;52.034;5.090;2023-05-07T00:52:56;16.20;80.30
69895;DHT22;57172;52.034;5.090;2023-05-07T00:55:23;16.20;80.20
69895;DHT22;57172;52.034;5.090;2023-05-07T00:57:51;16.10;80.20
69895;DHT22;57172;52.034;5.090;2023-05-07T01:00:18;16.20;80.30
69895;DHT22;57172;52.034;5.090;2023-05-07T01:02:46;16.20;80.40
69895;DHT22;57172;52.034;5.090;2023-05-07T01:05:15;16.20;80.40
69895;DHT22;57172;52.034;5.090;2023-05-07T01:07:44;16.20;80.40
69895;DHT22;57172;52.034;5.090;2023-05-07T01:10:12;16.20;80.40
69895;DHT22;57172;52.034;5.090;2023-05-07T01:12:40;16.20;80.30
69895;DHT22;57172;52.034;5.090;2023-05-07T01:15:09;16.20;80.40
69895;DHT22;57172;52.034;5.090;2023-05-07T01:17:39;16.20;80.30
69895;DHT22;57172;52.034;5.090;2023-05-07T01:20:11;16.20;80.30
69895;DHT22;57172;52.034;5.090;2023-05-07T01:22:39;16.20;80.20
69895;DHT22;57172;52.034;5.090;2023-05-07T01:25:08;16.20;80.20
69895;DHT22;57172;52.034;5.090;2023-05-07T01:27:39;16.30;80.30
69895;DHT22;57172;52.034;5.090;2023-05-07T01:30:07;16.30;80.20
69895;DHT22;57172;52.034;5.090;2023-05-07T01:32:53;16.20;80.30
69895;DHT22;57172;52.034;5.090;2023-05-07T01:35:28;16.20;80.20
69895;DHT22;57172;52.034;5.090;2023-05-07T01:37:56;16.20;80.20
69895;DHT22;57172;52.034;5.090;2023-05-07T01:40:25;16.20;80.30
69895;DHT22;57172;52.034;5.090;2023-05-07T01:42:53;16.20;80.40
69895;DHT22;57172;52.034;5.090;2023-05-07T01:45:20;16.20;80.30
69895;DHT22;57172;52.034;5.090;2023-05-07T01:47:48;16.20;80.30
69895;DHT22;57172;52.034;5.090;2023-05-07T01:50:17;16.20;80.40
69895;DHT22;57172;52.034;5.090;2023-05-07T01:52:45;16.20;80.40
69895;DHT22;57172;52.034;5.090;2023-05-07T01:55:11;16.20;80.40
69895;DHT22;57172;52.034;5.090;2023-05-07T01:57:39;16.20;80.40
69895;DHT22;57172;52.034;5.090;2023-05-07T02:00:07;16.20;80.30
69895;DHT22;57172;52.034;5.090;2023-05-07T02:02:42;16.20;80.30
69895;DHT22;57172;52.034;5.090;2023-05-07T02:05:19;16.20;80.30
69895;DHT22;57172;52.034;5.090;2023-05-07T02:07:53;16.20;80.10
69895;DHT22;57172;52.034;5.090;2023-05-07T02:10:20;16.20;80.10
69895;DHT22;57172;52.034;5.090;2023-05-07T02:12:47;16.20;80.00
69895;DHT22;57172;52.034;5.090;2023-05-07T02:15:14;16.20;79.90
69895;DHT22;57172;52.034;5.090;2023-05-07T02:18:08;16.20;79.70
69895;DHT22;57172;52.034;5.090;2023-05-07T02:20:35;16.20;79.80
69895;DHT22;57172;52.034;5.090;2023-05-07T02:23:03;16.10;79.60
69895;DHT22;57172;52.034;5.090;2023-05-07T02:25:29;16.10;79.70
69895;DHT22;57172;52.034;5.090;2023-05-07T02:27:57;16.10;79.70
69895;DHT22;57172;52.034;5.090;2023-05-07T02:30:37;16.00;79.60
69895;DHT22;57172;52.034;5.090;2023-05-07T02:33:05;16.00;79.50
69895;DHT22;57172;52.034;5.090;2023-05-07T02:35:33;16.00;79.50
69895;DHT22;57172;52.034;5.090;2023-05-07T02:37:59;16.00;79.50
69895;DHT22;57172;52.034;5.090;2023-05-07T02:40:26;15.90;79.50
69895;DHT22;57172;52.034;5.090;2023-05-07T02:42:53;15.90;79.60
69895;DHT22;57172;52.034;5.090;2023-05-07T02:45:21;15.90;79.50
69895;DHT22;57172;52.034;5.090;2023-05-07T02:47:49;15.90;79.50
69895;DHT22;57172;52.034;5.090;2023-05-07T02:50:16;15.90;79.60
69895;DHT22;57172;52.034;5.090;2023-05-07T02:52:43;15.90;79.50
69895;DHT22;57172;52.034;5.090;2023-05-07T02:55:10;15.90;79.40
69895;DHT22;57172;52.034;5.090;2023-05-07T02:57:37;15.90;79.40
69895;DHT22;57172;52.034;5.090;2023-05-07T03:00:16;15.90;79.20
69895;DHT22;57172;52.034;5.090;2023-05-07T03:02:51;15.80;79.20
69895;DHT22;57172;52.034;5.090;2023-05-07T03:05:18;15.70;79.10
69895;DHT22;57172;52.034;5.090;2023-05-07T03:07:45;15.70;79.00
69895;DHT22;57172;52.034;5.090;2023-05-07T03:10:13;15.70;79.00
69895;DHT22;57172;52.034;5.090;2023-05-07T03:12:40;15.60;78.90
69895;DHT22;57172;52.034;5.090;2023-05-07T03:15:10;15.50;78.90
69895;DHT22;57172;52.034;5.090;2023-05-07T03:17:41;15.50;79.00
69895;DHT22;57172;52.034;5.090;2023-05-07T03:20:08;15.40;79.10
69895;DHT22;57172;52.034;5.090;2023-05-07T03:22:37;15.40;79.10
69895;DHT22;57172;52.034;5.090;2023-05-07T03:25:05;15.40;79.20
69895;DHT22;57172;52.034;5.090;2023-05-07T03:27:32;15.40;79.20
69895;DHT22;57172;52.034;5.090;2023-05-07T03:29:59;15.30;79.20
69895;DHT22;57172;52.034;5.090;2023-05-07T03:32:27;15.30;79.30
69895;DHT22;57172;52.034;5.090;2023-05-07T03:34:54;15.30;79.30
69895;DHT22;57172;52.034;5.090;2023-05-07T03:37:21;15.30;79.30
69895;DHT22;57172;52.034;5.090;2023-05-07T03:39:48;15.30;79.30
69895;DHT22;57172;52.034;5.090;2023-05-07T03:42:16;15.30;79.30
69895;DHT22;57172;52.034;5.090;2023-05-07T03:44:43;15.30;79.30
69895;DHT22;57172;52.034;5.090;2023-05-07T03:47:10;15.30;79.40
69895;DHT22;57172;52.034;5.090;2023-05-07T03:49:37;15.30;79.50
69895;DHT22;57172;52.034;5.090;2023-05-07T03:52:05;15.20;79.60
69895;DHT22;57172;52.034;5.090;2023-05-07T03:54:32;15.20;79.70
69895;DHT22;57172;52.034;5.090;2023-05-07T03:57:00;15.20;79.80
69895;DHT22;57172;52.034;5.090;2023-05-07T03:59:27;15.20;79.90
69895;DHT22;57172;52.034;5.090;2023-05-07T04:01:54;15.20;80.10
69895;DHT22;57172;52.034;5.090;2023-05-07T04:04:23;15.30;80.10
69895;DHT22;57172;52.034;5.090;2023-05-07T04:06:50;15.30;80.20
69895;DHT22;57172;52.034;5.090;2023-05-07T04:09:18;15.30;80.20
69895;DHT22;57172;52.034;5.090;2023-05-07T04:11:46;15.30;80.20
69895;DHT22;57172;52.034;5.090;2023-05-07T04:14:14;15.40;80.20
69895;DHT22;57172;52.034;5.090;2023-05-07T04:16:41;15.40;80.20
69895;DHT22;57172;52.034;5.090;2023-05-07T04:19:08;15.40;80.20
69895;DHT22;57172;52.034;5.090;2023-05-07T04:21:36;15.50;80.10
69895;DHT22;57172;52.034;5.090;2023-05-07T04:24:03;15.50;80.10
69895;DHT22;57172;52.034;5.090;2023-05-07T04:26:30;15.50;80.10
69895;DHT22;57172;52.034;5.090;2023-05-07T04:28:58;15.60;80.10
69895;DHT22;57172;52.034;5.090;2023-05-07T04:31:31;15.60;80.10
69895;DHT22;57172;52.034;5.090;2023-05-07T04:33:58;15.60;80.10
69895;DHT22;57172;52.034;5.090;2023-05-07T04:36:25;15.70;80.10
69895;DHT22;57172;52.034;5.090;2023-05-07T04:38:59;15.70;80.20
69895;DHT22;57172;52.034;5.090;2023-05-07T04:41:26;15.70;80.10
69895;DHT22;57172;52.034;5.090;2023-05-07T04:43:54;15.70;80.10
69895;DHT22;57172;52.034;5.090;2023-05-07T04:46:23;15.70;80.10
69895;DHT22;57172;52.034;5.090;2023-05-07T04:48:52;15.80;80.10
69895;DHT22;57172;52.034;5.090;2023-05-07T04:51:19;15.80;80.10
69895;DHT22;57172;52.034;5.090;2023-05-07T04:53:46;15.80;80.10
69895;DHT22;57172;52.034;5.090;2023-05-07T04:56:13;15.80;80.20
69895;DHT22;57172;52.034;5.090;2023-05-07T04:58:42;15.80;80.20
69895;DHT22;57172;52.034;5.090;2023-05-07T05:01:10;15.90;80.30
69895;DHT22;57172;52.034;5.090;2023-05-07T05:03:38;15.90;80.30
69895;DHT22;57172;52.034;5.090;2023-05-07T05:06:07;15.90;80.20
69895;DHT22;57172;52.034;5.090;2023-05-07T05:08:34;15.90;80.20
69895;DHT22;57172;52.034;5.090;2023-05-07T05:11:02;16.00;80.10
69895;DHT22;57172;52.034;5.090;2023-05-07T05:13:31;16.00;80.00
69895;DHT22;57172;52.034;5.090;2023-05-07T05:16:00;16.00;79.90
69895;DHT22;57172;52.034;5.090;2023-05-07T05:18:29;16.00;80.00
69895;DHT22;57172;52.034;5.090;2023-05-07T05:20:56;16.00;79.90
69895;DHT22;57172;52.034;5.090;2023-05-07T05:23:23;16.00;80.10
69895;DHT22;57172;52.034;5.090;2023-05-07T05:25:50;16.00;80.20
69895;DHT22;57172;52.034;5.090;2023-05-07T05:28:22;16.00;80.20
69895;DHT22;57172;52.034;5.090;2023-05-07T05:30:49;16.00;80.20
69895;DHT22;57172;52.034;5.090;2023-05-07T05:33:17;16.10;80.10
69895;DHT22;57172;52.034;5.090;2023-05-07T05:35:44;16.10;80.10
69895;DHT22;57172;52.034;5.090;2023-05-07T05:38:13;16.20;80.10
69895;DHT22;57172;52.034;5.090;2023-05-07T05:40:40;16.20;80.10
69895;DHT22;57172;52.034;5.090;2023-05-07T05:43:08;16.20;80.10
69895;DHT22;57172;52.034;5.090;2023-05-07T05:45:37;16.30;80.10
69895;DHT22;57172;52.034;5.090;2023-05-07T05:48:05;16.30;80.20
69895;DHT22;57172;52.034;5.090;2023-05-07T05:50:32;16.40;80.10
69895;DHT22;57172;52.034;5.090;2023-05-07T05:53:00;16.40;80.10
69895;DHT22;57172;52.034;5.090;2023-05-07T05:55:28;16.50;80.10
69895;DHT22;57172;52.034;5.090;2023-05-07T05:57:55;16.50;80.10
69895;DHT22;57172;52.034;5.090;2023-05-07T06:00:23;16.60;80.10
69895;DHT22;57172;52.034;5.090;2023-05-07T06:02:58;16.60;79.50
69895;DHT22;57172;52.034;5.090;2023-05-07T06:05:25;16.70;79.40
69895;DHT22;57172;52.034;5.090;2023-05-07T06:07:54;16.70;79.40
69895;DHT22;57172;52.034;5.090;2023-05-07T06:10:21;16.80;79.40
69895;DHT22;57172;52.034;5.090;2023-05-07T06:12:48;16.80;79.40
69895;DHT22;57172;52.034;5.090;2023-05-07T06:15:16;16.90;79.50
69895;DHT22;57172;52.034;5.090;2023-05-07T06:17:44;16.90;79.40
69895;DHT22;57172;52.034;5.090;2023-05-07T06:20:11;17.00;79.20
69895;DHT22;57172;52.034;5.090;2023-05-07T06:22:39;17.00;79.20
69895;DHT22;57172;52.034;5.090;2023-05-07T06:25:08;17.00;78.90
69895;DHT22;57172;52.034;5.090;2023-05-07T06:27:36;17.10;78.80
69895;DHT22;57172;52.034;5.090;2023-05-07T06:30:03;17.10;78.50
69895;DHT22;57172;52.034;5.090;2023-05-07T06:32:31;17.10;78.10
69895;DHT22;57172;52.034;5.090;2023-05-07T06:34:58;17.10;78.10
69895;DHT22;57172;52.034;5.090;2023-05-07T06:37:25;17.10;78.10
69895;DHT22;57172;52.034;5.090;2023-05-07T06:39:56;17.20;78.00
69895;DHT22;57172;52.034;5.090;2023-05-07T06:42:26;17.20;78.00
69895;DHT22;57172;52.034;5.090;2023-05-07T06:44:57;17.20;78.10
69895;DHT22;57172;52.034;5.090;2023-05-07T06:47:25;17.30;78.40
69895;DHT22;57172;52.034;5.090;2023-05-07T06:49:54;17.30;78.70
69895;DHT22;57172;52.034;5.090;2023-05-07T06:52:25;17.40;78.70
69895;DHT22;57172;52.034;5.090;2023-05-07T06:54:52;17.50;78.80
69895;DHT22;57172;52.034;5.090;2023-05-07T06:57:21;17.60;78.70
69895;DHT22;57172;52.034;5.090;2023-05-07T06:59:48;17.80;78.40
69895;DHT22;57172;52.034;5.090;2023-05-07T07:02:15;17.90;78.00
69895;DHT22;57172;52.034;5.090;2023-05-07T07:04:45;18.10;77.60
69895;DHT22;57172;52.034;5.090;2023-05-07T07:07:13;18.20;77.40
69895;DHT22;57172;52.034;5.090;2023-05-07T07:09:42;18.30;77.40
69895;DHT22;57172;52.034;5.090;2023-05-07T07:12:10;18.50;77.10
69895;DHT22;57172;52.034;5.090;2023-05-07T07:14:39;18.50;76.90
69895;DHT22;57172;52.034;5.090;2023-05-07T07:17:06;18.60;76.50
69895;DHT22;57172;52.034;5.090;2023-05-07T07:19:33;18.60;75.90
69895;DHT22;57172;52.034;5.090;2023-05-07T07:22:02;18.60;75.30
69895;DHT22;57172;52.034;5.090;2023-05-07T07:24:29;18.60;74.90
69895;DHT22;57172;52.034;5.090;2023-05-07T07:27:16;18.60;75.00
69895;DHT22;57172;52.034;5.090;2023-05-07T07:29:43;18.60;75.20
69895;DHT22;57172;52.034;5.090;2023-05-07T07:32:10;18.60;75.40
69895;DHT22;57172;52.034;5.090;2023-05-07T07:34:37;18.60;75.40
69895;DHT22;57172;52.034;5.090;2023-05-07T07:37:05;18.60;75.30
69895;DHT22;57172;52.034;5.090;2023-05-07T07:39:34;18.50;75.50
69895;DHT22;57172;52.034;5.090;2023-05-07T07:42:02;18.50;75.90
69895;DHT22;57172;52.034;5.090;2023-05-07T07:44:29;18.50;76.20
69895;DHT22;57172;52.034;5.090;2023-05-07T07:47:01;18.60;76.30
69895;DHT22;57172;52.034;5.090;2023-05-07T07:49:28;18.70;75.90
69895;DHT22;57172;52.034;5.090;2023-05-07T07:51:57;18.70;76.10
69895;DHT22;57172;52.034;5.090;2023-05-07T07:54:26;18.70;75.90
69895;DHT22;57172;52.034;5.090;2023-05-07T07:56:53;18.70;75.70
69895;DHT22;57172;52.034;5.090;2023-05-07T07:59:21;18.80;75.60
69895;DHT22;57172;52.034;5.090;2023-05-07T08:01:50;18.80;75.50
69895;DHT22;57172;52.034;5.090;2023-05-07T08:04:23;18.90;75.40
69895;DHT22;57172;52.034;5.090;2023-05-07T08:06:50;18.90;75.20
69895;DHT22;57172;52.034;5.090;2023-05-07T08:09:17;18.90;75.30
69895;DHT22;57172;52.034;5.090;2023-05-07T08:11:45;19.00;75.60
69895;DHT22;57172;52.034;5.090;2023-05-07T08:14:13;19.10;75.50
69895;DHT22;57172;52.034;5.090;2023-05-07T08:16:40;19.10;75.50
69895;DHT22;57172;52.034;5.090;2023-05-07T08:19:07;19.20;75.30
69895;DHT22;57172;52.034;5.090;2023-05-07T08:21:34;19.30;75.20
69895;DHT22;57172;52.034;5.090;2023-05-07T08:24:02;19.30;75.40
69895;DHT22;57172;52.034;5.090;2023-05-07T08:26:28;19.40;75.30
69895;DHT22;57172;52.034;5.090;2023-05-07T08:28:55;19.50;75.40
69895;DHT22;57172;52.034;5.090;2023-05-07T08:31:23;19.60;75.40
69895;DHT22;57172;52.034;5.090;2023-05-07T08:34:15;19.80;75.20
69895;DHT22;57172;52.034;5.090;2023-05-07T08:36:46;20.00;74.40
69895;DHT22;57172;52.034;5.090;2023-05-07T08:39:17;20.30;74.50
69895;DHT22;57172;52.034;5.090;2023-05-07T08:41:48;20.40;73.70
69895;DHT22;57172;52.034;5.090;2023-05-07T08:44:16;20.60;73.60
69895;DHT22;57172;52.034;5.090;2023-05-07T08:46:47;20.80;73.30
69895;DHT22;57172;52.034;5.090;2023-05-07T08:49:17;21.10;72.80
69895;DHT22;57172;52.034;5.090;2023-05-07T08:51:44;21.30;72.30
69895;DHT22;57172;52.034;5.090;2023-05-07T08:54:15;21.50;72.70
69895;DHT22;57172;52.034;5.090;2023-05-07T08:56:42;21.90;73.10
69895;DHT22;57172;52.034;5.090;2023-05-07T08:59:10;22.40;74.00
69895;DHT22;57172;52.034;5.090;2023-05-07T09:01:37;23.00;72.40
69895;DHT22;57172;52.034;5.090;2023-05-07T09:04:05;23.70;70.50
69895;DHT22;57172;52.034;5.090;2023-05-07T09:06:34;24.20;68.50
69895;DHT22;57172;52.034;5.090;2023-05-07T09:09:01;24.70;66.40
69895;DHT22;57172;52.034;5.090;2023-05-07T09:11:30;24.90;64.10
69895;DHT22;57172;52.034;5.090;2023-05-07T09:13:59;24.90;62.30
69895;DHT22;57172;52.034;5.090;2023-05-07T09:16:32;24.80;62.20
69895;DHT22;57172;52.034;5.090;2023-05-07T09:19:00;24.70;61.30
69895;DHT22;57172;52.034;5.090;2023-05-07T09:21:27;24.60;61.30
69895;DHT22;57172;52.034;5.090;2023-05-07T09:23:57;24.70;61.00
69895;DHT22;57172;52.034;5.090;2023-05-07T09:26:32;24.60;60.80
69895;DHT22;57172;52.034;5.090;2023-05-07T09:29:02;24.70;61.00
69895;DHT22;57172;52.034;5.090;2023-05-07T09:31:29;25.00;60.90
69895;DHT22;57172;52.034;5.090;2023-05-07T09:33:56;25.10;60.80
69895;DHT22;57172;52.034;5.090;2023-05-07T09:36:27;25.20;60.20
69895;DHT22;57172;52.034;5.090;2023-05-07T09:38:54;25.30;59.80
69895;DHT22;57172;52.034;5.090;2023-05-07T09:41:21;25.50;59.90
69895;DHT22;57172;52.034;5.090;2023-05-07T09:44:07;25.80;59.40
69895;DHT22;57172;52.034;5.090;2023-05-07T09:46:42;26.00;58.30
69895;DHT22;57172;52.034;5.090;2023-05-07T09:49:21;26.40;58.10
69895;DHT22;57172;52.034;5.090;2023-05-07T09:51:52;27.00;57.10
69895;DHT22;57172;52.034;5.090;2023-05-07T09:54:22;27.70;55.60
69895;DHT22;57172;52.034;5.090;2023-05-07T09:56:52;27.90;54.00
69895;DHT22;57172;52.034;5.090;2023-05-07T09:59:24;28.10;53.20
69895;DHT22;57172;52.034;5.090;2023-05-07T10:01:57;28.20;52.40
69895;DHT22;57172;52.034;5.090;2023-05-07T10:04:26;28.20;51.30
69895;DHT22;57172;52.034;5.090;2023-05-07T10:06:54;28.00;51.10
69895;DHT22;57172;52.034;5.090;2023-05-07T10:09:23;27.90;50.20
69895;DHT22;57172;52.034;5.090;2023-05-07T10:11:50;27.50;50.50
69895;DHT22;57172;52.034;5.090;2023-05-07T10:14:21;27.20;51.00
69895;DHT22;57172;52.034;5.090;2023-05-07T10:16:48;27.10;51.50
69895;DHT22;57172;52.034;5.090;2023-05-07T10:19:19;27.20;51.30
69895;DHT22;57172;52.034;5.090;2023-05-07T10:21:54;27.50;52.10
69895;DHT22;57172;52.034;5.090;2023-05-07T10:24:32;27.90;51.60
69895;DHT22;57172;52.034;5.090;2023-05-07T10:27:08;28.10;51.80
69895;DHT22;57172;52.034;5.090;2023-05-07T10:30:15;28.60;51.00
69895;DHT22;57172;52.034;5.090;2023-05-07T10:32:51;29.20;50.20
69895;DHT22;57172;52.034;5.090;2023-05-07T10:35:30;29.90;48.80
69895;DHT22;57172;52.034;5.090;2023-05-07T10:38:01;30.70;47.20
69895;DHT22;57172;52.034;5.090;2023-05-07T10:40:31;31.30;46.20
69895;DHT22;57172;52.034;5.090;2023-05-07T10:43:01;31.90;44.40
69895;DHT22;57172;52.034;5.090;2023-05-07T10:45:33;32.30;44.30
69895;DHT22;57172;52.034;5.090;2023-05-07T10:51:20;32.70;43.30
69895;DHT22;57172;52.034;5.090;2023-05-07T10:56:46;32.70;43.00
69895;DHT22;57172;52.034;5.090;2023-05-07T11:02:03;32.70;42.10
69895;DHT22;57172;52.034;5.090;2023-05-07T11:05:18;32.20;42.30
69895;DHT22;57172;52.034;5.090;2023-05-07T11:07:54;31.80;42.70
69895;DHT22;57172;52.034;5.090;2023-05-07T11:10:49;31.40;43.60
69895;DHT22;57172;52.034;5.090;2023-05-07T11:13:46;31.40;43.20
69895;DHT22;57172;52.034;5.090;2023-05-07T11:16:34;31.80;43.20
69895;DHT22;57172;52.034;5.090;2023-05-07T11:19:52;32.40;43.30
69895;DHT22;57172;52.034;5.090;2023-05-07T11:25:09;32.70;40.60
69895;DHT22;57172;52.034;5.090;2023-05-07T11:27:37;32.50;41.90
69895;DHT22;57172;52.034;5.090;2023-05-07T11:30:05;32.60;41.30
69895;DHT22;57172;52.034;5.090;2023-05-07T11:32:33;32.30;40.80
69895;DHT22;57172;52.034;5.090;2023-05-07T11:35:00;31.90;41.20
69895;DHT22;57172;52.034;5.090;2023-05-07T11:37:28;31.60;42.50
69895;DHT22;57172;52.034;5.090;2023-05-07T11:40:05;31.60;42.50
69895;DHT22;57172;52.034;5.090;2023-05-07T11:42:37;31.40;42.50
69895;DHT22;57172;52.034;5.090;2023-05-07T11:45:06;31.30;43.40
69895;DHT22;57172;52.034;5.090;2023-05-07T11:47:34;31.40;43.50
69895;DHT22;57172;52.034;5.090;2023-05-07T11:50:07;31.60;43.10
69895;DHT22;57172;52.034;5.090;2023-05-07T11:52:35;31.70;41.90
69895;DHT22;57172;52.034;5.090;2023-05-07T11:55:02;31.70;42.80
69895;DHT22;57172;52.034;5.090;2023-05-07T11:57:33;31.70;43.00
69895;DHT22;57172;52.034;5.090;2023-05-07T12:00:01;31.80;42.80
69895;DHT22;57172;52.034;5.090;2023-05-07T12:02:40;32.00;43.50
69895;DHT22;57172;52.034;5.090;2023-05-07T12:05:09;32.40;42.30
69895;DHT22;57172;52.034;5.090;2023-05-07T12:07:37;32.70;41.40
69895;DHT22;57172;52.034;5.090;2023-05-07T12:10:07;32.60;40.70
69895;DHT22;57172;52.034;5.090;2023-05-07T12:12:39;32.50;40.90
69895;DHT22;57172;52.034;5.090;2023-05-07T12:15:07;32.50;40.50
69895;DHT22;57172;52.034;5.090;2023-05-07T12:17:35;32.50;40.60
69895;DHT22;57172;52.034;5.090;2023-05-07T12:20:02;32.70;40.50
69895;DHT22;57172;52.034;5.090;2023-05-07T12:22:30;32.90;40.20
69895;DHT22;57172;52.034;5.090;2023-05-07T12:24:57;33.00;39.00
69895;DHT22;57172;52.034;5.090;2023-05-07T12:27:25;32.70;39.40
69895;DHT22;57172;52.034;5.090;2023-05-07T12:29:52;32.20;40.50
69895;DHT22;57172;52.034;5.090;2023-05-07T12:32:21;31.80;41.50
69895;DHT22;57172;52.034;5.090;2023-05-07T12:34:51;31.80;41.40
69895;DHT22;57172;52.034;5.090;2023-05-07T12:37:24;31.90;40.20
69895;DHT22;57172;52.034;5.090;2023-05-07T12:42:36;32.10;39.30
69895;DHT22;57172;52.034;5.090;2023-05-07T12:45:16;32.40;40.00
69895;DHT22;57172;52.034;5.090;2023-05-07T12:47:47;32.70;37.00
69895;DHT22;57172;52.034;5.090;2023-05-07T12:50:15;32.40;37.30
69895;DHT22;57172;52.034;5.090;2023-05-07T12:52:47;32.30;37.20
69895;DHT22;57172;52.034;5.090;2023-05-07T12:55:15;32.10;36.50
69895;DHT22;57172;52.034;5.090;2023-05-07T12:57:47;31.70;36.60
69895;DHT22;57172;52.034;5.090;2023-05-07T13:00:15;31.40;37.00
69895;DHT22;57172;52.034;5.090;2023-05-07T13:02:43;31.30;38.20
69895;DHT22;57172;52.034;5.090;2023-05-07T13:05:13;31.20;37.90
69895;DHT22;57172;52.034;5.090;2023-05-07T13:07:40;31.30;37.90
69895;DHT22;57172;52.034;5.090;2023-05-07T13:10:09;31.10;37.60
69895;DHT22;57172;52.034;5.090;2023-05-07T13:12:36;31.00;38.10
69895;DHT22;57172;52.034;5.090;2023-05-07T13:15:03;31.00;37.40
69895;DHT22;57172;52.034;5.090;2023-05-07T13:17:30;30.80;38.20
69895;DHT22;57172;52.034;5.090;2023-05-07T13:19:58;30.80;39.00
69895;DHT22;57172;52.034;5.090;2023-05-07T13:22:25;30.90;38.40
69895;DHT22;57172;52.034;5.090;2023-05-07T13:24:52;30.90;39.00
69895;DHT22;57172;52.034;5.090;2023-05-07T13:27:18;31.00;39.10
69895;DHT22;57172;52.034;5.090;2023-05-07T13:29:46;31.30;39.80
69895;DHT22;57172;52.034;5.090;2023-05-07T13:32:13;31.40;39.30
69895;DHT22;57172;52.034;5.090;2023-05-07T13:34:40;31.60;38.90
69895;DHT22;57172;52.034;5.090;2023-05-07T13:37:06;31.70;37.50
69895;DHT22;57172;52.034;5.090;2023-05-07T13:39:37;31.40;37.60
69895;DHT22;57172;52.034;5.090;2023-05-07T13:42:03;31.20;37.80
69895;DHT22;57172;52.034;5.090;2023-05-07T13:44:30;31.10;38.90
69895;DHT22;57172;52.034;5.090;2023-05-07T13:46:57;31.00;39.00
69895;DHT22;57172;52.034;5.090;2023-05-07T13:49:24;31.20;38.40
69895;DHT22;57172;52.034;5.090;2023-05-07T13:51:51;31.20;38.40
69895;DHT22;57172;52.034;5.090;2023-05-07T13:54:18;31.30;38.90
69895;DHT22;57172;52.034;5.090;2023-05-07T13:56:45;31.20;38.20
69895;DHT22;57172;52.034;5.090;2023-05-07T13:59:11;31.00;38.30
69895;DHT22;57172;52.034;5.090;2023-05-07T14:01:40;30.70;38.30
69895;DHT22;57172;52.034;5.090;2023-05-07T14:04:07;30.20;38.90
69895;DHT22;57172;52.034;5.090;2023-05-07T14:06:34;29.80;40.30
69895;DHT22;57172;52.034;5.090;2023-05-07T14:09:01;29.50;40.30
69895;DHT22;57172;52.034;5.090;2023-05-07T14:11:28;29.10;40.80
69895;DHT22;57172;52.034;5.090;2023-05-07T14:13:55;28.80;41.50
69895;DHT22;57172;52.034;5.090;2023-05-07T14:16:23;28.70;41.80
69895;DHT22;57172;52.034;5.090;2023-05-07T14:18:50;28.50;41.80
69895;DHT22;57172;52.034;5.090;2023-05-07T14:21:17;28.20;42.30
69895;DHT22;57172;52.034;5.090;2023-05-07T14:23:43;27.80;43.10
69895;DHT22;57172;52.034;5.090;2023-05-07T14:26:10;27.60;43.60
69895;DHT22;57172;52.034;5.090;2023-05-07T14:28:37;27.30;43.80
69895;DHT22;57172;52.034;5.090;2023-05-07T14:31:06;26.90;44.20
69895;DHT22;57172;52.034;5.090;2023-05-07T14:33:33;26.40;45.40
69895;DHT22;57172;52.034;5.090;2023-05-07T14:36:00;25.70;46.90
69895;DHT22;57172;52.034;5.090;2023-05-07T14:38:27;25.10;48.70
69895;DHT22;57172;52.034;5.090;2023-05-07T14:40:53;24.70;50.70
69895;DHT22;57172;52.034;5.090;2023-05-07T14:43:22;24.30;52.40
69895;DHT22;57172;52.034;5.090;2023-05-07T14:45:49;23.20;56.60
69895;DHT22;57172;52.034;5.090;2023-05-07T14:48:16;21.80;60.20
69895;DHT22;57172;52.034;5.090;2023-05-07T14:50:47;20.70;64.20
69895;DHT22;57172;52.034;5.090;2023-05-07T14:53:15;20.30;67.20
69895;DHT22;57172;52.034;5.090;2023-05-07T14:55:42;20.00;69.30
69895;DHT22;57172;52.034;5.090;2023-05-07T14:58:13;19.90;72.00
69895;DHT22;57172;52.034;5.090;2023-05-07T15:00:40;20.00;73.70
69895;DHT22;57172;52.034;5.090;2023-05-07T15:03:10;20.10;74.20
69895;DHT22;57172;52.034;5.090;2023-05-07T15:05:39;20.20;74.90
69895;DHT22;57172;52.034;5.090;2023-05-07T15:08:06;20.40;75.20
69895;DHT22;57172;52.034;5.090;2023-05-07T15:10:36;20.60;75.50
69895;DHT22;57172;52.034;5.090;2023-05-07T15:13:09;20.80;74.80
69895;DHT22;57172;52.034;5.090;2023-05-07T15:15:42;20.90;74.90
69895;DHT22;57172;52.034;5.090;2023-05-07T15:18:10;21.10;74.40
69895;DHT22;57172;52.034;5.090;2023-05-07T15:20:37;21.20;74.00
69895;DHT22;57172;52.034;5.090;2023-05-07T15:23:05;21.30;73.80
69895;DHT22;57172;52.034;5.090;2023-05-07T15:25:32;21.40;73.30
69895;DHT22;57172;52.034;5.090;2023-05-07T15:28:00;21.50;73.30
69895;DHT22;57172;52.034;5.090;2023-05-07T15:30:27;21.60;73.50
69895;DHT22;57172;52.034;5.090;2023-05-07T15:32:54;21.70;73.50
69895;DHT22;57172;52.034;5.090;2023-05-07T15:35:21;21.90;73.30
69895;DHT22;57172;52.034;5.090;2023-05-07T15:37:49;22.20;72.90
69895;DHT22;57172;52.034;5.090;2023-05-07T15:40:16;22.30;71.70
69895;DHT22;57172;52.034;5.090;2023-05-07T15:42:44;22.40;71.40
69895;DHT22;57172;52.034;5.090;2023-05-07T15:45:11;22.50;70.30
69895;DHT22;57172;52.034;5.090;2023-05-07T15:47:39;22.60;70.00
69895;DHT22;57172;52.034;5.090;2023-05-07T15:50:06;22.70;69.80
69895;DHT22;57172;52.034;5.090;2023-05-07T15:52:33;22.70;68.90
69895;DHT22;57172;52.034;5.090;2023-05-07T15:55:00;22.70;68.50
69895;DHT22;57172;52.034;5.090;2023-05-07T15:57:27;22.70;68.40